Burton City, Ohio
Current Conditions -  °F | °C
As of 8:51 PM on Saturday 22 Nov 2014 (Local Time) from KCAK Reporting Station
Overcast Overcast  
Wind Chill:   Ceiling: 4000
Heat Index:   Visibility: 10mi
Dew Point:   Wind: 9mph
Humidity: 63%   Direction: 200°SSW
Pressure: 30.06"   Gusts: NA
Location:  40.8369°N, 81.7632°W
Report Text: KCAK 230151Z 20008KT 10SM OVC040 07/01 A3006 RMK AO2 RAB0053E09 SLP191 P0001 T00720006 $
Loading
Personal Weather Stations






























Interactive Weather Map New forecast layout! Learn more

10-Day Weather Forecast

Advertisements
Track Severe Weather on mobile